sensor_id;sensor_type;location;lat;lon;timestamp;P1;durP1;ratioP1;P2;durP2;ratioP2
67675;SDS011;54456;48.436;10.028;2023-12-29T00:00:51;16.92;;;7.15;;
67675;SDS011;54456;48.436;10.028;2023-12-29T00:02:22;18.52;;;7.65;;
67675;SDS011;54456;48.436;10.028;2023-12-29T00:03:52;17.40;;;6.87;;
67675;SDS011;54456;48.436;10.028;2023-12-29T00:05:22;15.23;;;6.47;;
67675;SDS011;54456;48.436;10.028;2023-12-29T00:06:52;17.00;;;6.17;;
67675;SDS011;54456;48.436;10.028;2023-12-29T00:08:23;15.18;;;5.82;;
67675;SDS011;54456;48.436;10.028;2023-12-29T00:09:53;17.63;;;6.40;;
67675;SDS011;54456;48.436;10.028;2023-12-29T00:11:24;18.88;;;7.47;;
67675;SDS011;54456;48.436;10.028;2023-12-29T00:12:54;16.30;;;5.68;;
67675;SDS011;54456;48.436;10.028;2023-12-29T00:14:24;17.13;;;6.77;;
67675;SDS011;54456;48.436;10.028;2023-12-29T00:15:56;19.05;;;8.15;;
67675;SDS011;54456;48.436;10.028;2023-12-29T00:17:26;12.05;;;4.75;;
67675;SDS011;54456;48.436;10.028;2023-12-29T00:18:57;16.80;;;5.40;;
67675;SDS011;54456;48.436;10.028;2023-12-29T00:20:27;22.70;;;8.23;;
67675;SDS011;54456;48.436;10.028;2023-12-29T00:21:58;17.17;;;5.97;;
67675;SDS011;54456;48.436;10.028;2023-12-29T00:23:30;20.23;;;7.50;;
67675;SDS011;54456;48.436;10.028;2023-12-29T00:25:00;20.50;;;9.13;;
67675;SDS011;54456;48.436;10.028;2023-12-29T00:26:30;19.98;;;7.07;;
67675;SDS011;54456;48.436;10.028;2023-12-29T00:28:01;17.80;;;6.75;;
67675;SDS011;54456;48.436;10.028;2023-12-29T00:29:31;20.57;;;7.83;;
67675;SDS011;54456;48.436;10.028;2023-12-29T04:16:14;24.52;;;9.27;;
67675;SDS011;54456;48.436;10.028;2023-12-29T04:19:59;21.98;;;8.20;;
67675;SDS011;54456;48.436;10.028;2023-12-29T04:21:37;21.77;;;8.20;;
67675;SDS011;54456;48.436;10.028;2023-12-29T04:23:40;20.45;;;8.18;;
67675;SDS011;54456;48.436;10.028;2023-12-29T04:25:41;23.10;;;8.35;;
67675;SDS011;54456;48.436;10.028;2023-12-29T04:27:29;22.15;;;7.60;;
67675;SDS011;54456;48.436;10.028;2023-12-29T04:29:19;22.52;;;8.45;;
67675;SDS011;54456;48.436;10.028;2023-12-29T04:30:51;23.35;;;8.13;;
67675;SDS011;54456;48.436;10.028;2023-12-29T04:32:37;23.10;;;8.20;;
67675;SDS011;54456;48.436;10.028;2023-12-29T04:34:10;18.92;;;6.90;;
67675;SDS011;54456;48.436;10.028;2023-12-29T04:35:45;15.80;;;5.38;;
67675;SDS011;54456;48.436;10.028;2023-12-29T04:37:25;25.05;;;9.68;;
67675;SDS011;54456;48.436;10.028;2023-12-29T04:39:01;21.20;;;7.13;;
67675;SDS011;54456;48.436;10.028;2023-12-29T04:40:31;22.85;;;8.45;;
67675;SDS011;54456;48.436;10.028;2023-12-29T04:42:05;23.45;;;8.73;;
67675;SDS011;54456;48.436;10.028;2023-12-29T04:43:41;20.55;;;8.15;;
67675;SDS011;54456;48.436;10.028;2023-12-29T04:45:13;20.95;;;7.95;;
67675;SDS011;54456;48.436;10.028;2023-12-29T04:46:46;19.08;;;7.47;;
67675;SDS011;54456;48.436;10.028;2023-12-29T04:48:16;18.23;;;8.00;;
67675;SDS011;54456;48.436;10.028;2023-12-29T04:49:47;24.40;;;9.23;;
67675;SDS011;54456;48.436;10.028;2023-12-29T04:51:17;20.10;;;7.05;;
67675;SDS011;54456;48.436;10.028;2023-12-29T04:52:50;19.30;;;7.80;;
67675;SDS011;54456;48.436;10.028;2023-12-29T04:54:20;21.02;;;8.10;;
67675;SDS011;54456;48.436;10.028;2023-12-29T04:55:53;20.15;;;7.65;;
67675;SDS011;54456;48.436;10.028;2023-12-29T04:57:24;23.43;;;8.23;;
67675;SDS011;54456;48.436;10.028;2023-12-29T04:58:54;23.50;;;8.98;;
67675;SDS011;54456;48.436;10.028;2023-12-29T05:00:29;19.92;;;8.13;;
67675;SDS011;54456;48.436;10.028;2023-12-29T05:01:59;23.53;;;8.30;;
67675;SDS011;54456;48.436;10.028;2023-12-29T05:03:30;19.70;;;7.95;;
67675;SDS011;54456;48.436;10.028;2023-12-29T05:05:02;24.23;;;7.95;;
67675;SDS011;54456;48.436;10.028;2023-12-29T05:06:42;22.05;;;8.32;;
67675;SDS011;54456;48.436;10.028;2023-12-29T05:08:24;22.27;;;8.10;;
67675;SDS011;54456;48.436;10.028;2023-12-29T05:10:03;23.27;;;7.82;;
67675;SDS011;54456;48.436;10.028;2023-12-29T05:11:34;17.67;;;7.22;;
67675;SDS011;54456;48.436;10.028;2023-12-29T05:13:04;21.50;;;7.80;;
67675;SDS011;54456;48.436;10.028;2023-12-29T05:14:35;19.85;;;7.40;;
67675;SDS011;54456;48.436;10.028;2023-12-29T05:16:08;20.40;;;7.23;;
67675;SDS011;54456;48.436;10.028;2023-12-29T05:17:38;18.02;;;7.32;;
67675;SDS011;54456;48.436;10.028;2023-12-29T05:19:12;20.67;;;8.80;;
67675;SDS011;54456;48.436;10.028;2023-12-29T05:20:49;22.77;;;8.07;;
67675;SDS011;54456;48.436;10.028;2023-12-29T05:22:19;21.95;;;7.38;;
67675;SDS011;54456;48.436;10.028;2023-12-29T05:23:50;22.55;;;8.73;;
67675;SDS011;54456;48.436;10.028;2023-12-29T05:25:20;18.95;;;7.07;;
67675;SDS011;54456;48.436;10.028;2023-12-29T05:26:53;23.77;;;8.15;;
67675;SDS011;54456;48.436;10.028;2023-12-29T05:28:23;17.38;;;6.57;;
67675;SDS011;54456;48.436;10.028;2023-12-29T05:30:03;21.02;;;8.38;;
67675;SDS011;54456;48.436;10.028;2023-12-29T05:31:33;20.42;;;8.15;;
67675;SDS011;54456;48.436;10.028;2023-12-29T05:33:04;16.08;;;6.50;;
67675;SDS011;54456;48.436;10.028;2023-12-29T05:34:35;19.48;;;8.50;;
67675;SDS011;54456;48.436;10.028;2023-12-29T05:36:05;21.05;;;7.22;;
67675;SDS011;54456;48.436;10.028;2023-12-29T05:37:39;21.50;;;8.77;;
67675;SDS011;54456;48.436;10.028;2023-12-29T05:39:11;18.37;;;6.73;;
67675;SDS011;54456;48.436;10.028;2023-12-29T05:40:42;19.27;;;7.15;;
67675;SDS011;54456;48.436;10.028;2023-12-29T05:42:12;19.33;;;6.88;;
67675;SDS011;54456;48.436;10.028;2023-12-29T05:43:42;22.47;;;7.40;;
67675;SDS011;54456;48.436;10.028;2023-12-29T05:45:15;23.55;;;8.07;;
67675;SDS011;54456;48.436;10.028;2023-12-29T05:46:46;22.13;;;7.75;;
67675;SDS011;54456;48.436;10.028;2023-12-29T05:48:18;18.48;;;6.22;;
67675;SDS011;54456;48.436;10.028;2023-12-29T05:49:48;16.80;;;6.57;;
67675;SDS011;54456;48.436;10.028;2023-12-29T05:51:19;20.92;;;7.38;;
67675;SDS011;54456;48.436;10.028;2023-12-29T05:52:50;18.55;;;6.72;;
67675;SDS011;54456;48.436;10.028;2023-12-29T05:54:21;21.58;;;7.45;;
67675;SDS011;54456;48.436;10.028;2023-12-29T05:55:52;16.47;;;6.50;;
67675;SDS011;54456;48.436;10.028;2023-12-29T05:57:22;12.15;;;4.45;;
67675;SDS011;54456;48.436;10.028;2023-12-29T05:58:52;13.30;;;5.87;;
67675;SDS011;54456;48.436;10.028;2023-12-29T06:00:23;19.53;;;7.30;;
67675;SDS011;54456;48.436;10.028;2023-12-29T06:01:53;20.33;;;8.53;;
67675;SDS011;54456;48.436;10.028;2023-12-29T06:03:23;12.40;;;4.90;;
67675;SDS011;54456;48.436;10.028;2023-12-29T06:04:54;16.87;;;6.60;;
67675;SDS011;54456;48.436;10.028;2023-12-29T06:06:24;18.37;;;6.97;;
67675;SDS011;54456;48.436;10.028;2023-12-29T06:07:54;19.50;;;6.73;;
67675;SDS011;54456;48.436;10.028;2023-12-29T06:09:25;18.80;;;7.07;;
67675;SDS011;54456;48.436;10.028;2023-12-29T06:10:55;22.55;;;8.43;;
67675;SDS011;54456;48.436;10.028;2023-12-29T06:12:26;16.33;;;6.50;;
67675;SDS011;54456;48.436;10.028;2023-12-29T06:13:56;18.52;;;7.82;;
67675;SDS011;54456;48.436;10.028;2023-12-29T06:15:27;17.13;;;6.85;;
67675;SDS011;54456;48.436;10.028;2023-12-29T06:16:57;16.02;;;5.88;;
67675;SDS011;54456;48.436;10.028;2023-12-29T06:18:27;17.33;;;6.72;;
67675;SDS011;54456;48.436;10.028;2023-12-29T06:19:58;15.20;;;5.00;;
67675;SDS011;54456;48.436;10.028;2023-12-29T06:21:28;16.20;;;6.47;;
67675;SDS011;54456;48.436;10.028;2023-12-29T06:22:59;19.17;;;7.22;;
67675;SDS011;54456;48.436;10.028;2023-12-29T06:24:29;15.85;;;5.65;;
67675;SDS011;54456;48.436;10.028;2023-12-29T06:26:00;16.40;;;5.22;;
67675;SDS011;54456;48.436;10.028;2023-12-29T06:27:30;15.73;;;6.45;;
67675;SDS011;54456;48.436;10.028;2023-12-29T06:29:02;15.50;;;6.50;;
67675;SDS011;54456;48.436;10.028;2023-12-29T06:30:32;16.05;;;5.82;;
67675;SDS011;54456;48.436;10.028;2023-12-29T06:32:03;17.02;;;6.50;;
67675;SDS011;54456;48.436;10.028;2023-12-29T06:33:34;17.20;;;6.47;;
67675;SDS011;54456;48.436;10.028;2023-12-29T06:35:04;21.50;;;7.35;;
67675;SDS011;54456;48.436;10.028;2023-12-29T06:36:35;18.52;;;7.72;;
67675;SDS011;54456;48.436;10.028;2023-12-29T06:38:06;18.25;;;6.50;;
67675;SDS011;54456;48.436;10.028;2023-12-29T06:39:36;15.75;;;5.53;;
67675;SDS011;54456;48.436;10.028;2023-12-29T06:41:07;15.93;;;6.18;;
67675;SDS011;54456;48.436;10.028;2023-12-29T06:42:37;19.00;;;6.90;;
67675;SDS011;54456;48.436;10.028;2023-12-29T06:44:08;15.77;;;5.00;;
67675;SDS011;54456;48.436;10.028;2023-12-29T06:45:38;15.65;;;6.70;;
67675;SDS011;54456;48.436;10.028;2023-12-29T06:47:09;18.80;;;7.93;;
67675;SDS011;54456;48.436;10.028;2023-12-29T06:48:39;19.80;;;7.57;;
67675;SDS011;54456;48.436;10.028;2023-12-29T06:50:10;16.63;;;6.10;;
67675;SDS011;54456;48.436;10.028;2023-12-29T06:51:42;12.48;;;4.70;;
67675;SDS011;54456;48.436;10.028;2023-12-29T06:53:12;15.00;;;4.72;;
67675;SDS011;54456;48.436;10.028;2023-12-29T06:54:43;15.37;;;5.43;;
67675;SDS011;54456;48.436;10.028;2023-12-29T06:56:16;11.43;;;4.63;;
67675;SDS011;54456;48.436;10.028;2023-12-29T06:57:47;15.90;;;6.03;;
67675;SDS011;54456;48.436;10.028;2023-12-29T06:59:18;15.20;;;5.30;;
67675;SDS011;54456;48.436;10.028;2023-12-29T07:00:49;13.60;;;4.90;;
67675;SDS011;54456;48.436;10.028;2023-12-29T07:02:20;14.10;;;6.23;;
67675;SDS011;54456;48.436;10.028;2023-12-29T07:03:50;14.30;;;5.30;;
67675;SDS011;54456;48.436;10.028;2023-12-29T07:05:21;14.50;;;6.13;;
67675;SDS011;54456;48.436;10.028;2023-12-29T07:06:51;16.25;;;5.68;;
67675;SDS011;54456;48.436;10.028;2023-12-29T07:08:21;12.93;;;5.53;;
67675;SDS011;54456;48.436;10.028;2023-12-29T07:09:52;10.73;;;3.70;;
67675;SDS011;54456;48.436;10.028;2023-12-29T07:11:22;14.73;;;5.93;;
67675;SDS011;54456;48.436;10.028;2023-12-29T07:12:53;14.82;;;6.32;;
67675;SDS011;54456;48.436;10.028;2023-12-29T07:14:23;9.27;;;3.90;;
67675;SDS011;54456;48.436;10.028;2023-12-29T07:15:54;17.10;;;6.00;;
67675;SDS011;54456;48.436;10.028;2023-12-29T07:17:24;16.92;;;6.43;;
67675;SDS011;54456;48.436;10.028;2023-12-29T07:18:54;14.53;;;4.40;;
67675;SDS011;54456;48.436;10.028;2023-12-29T07:20:25;20.17;;;6.90;;
67675;SDS011;54456;48.436;10.028;2023-12-29T07:21:55;17.23;;;5.80;;
67675;SDS011;54456;48.436;10.028;2023-12-29T07:23:25;15.60;;;5.57;;
67675;SDS011;54456;48.436;10.028;2023-12-29T07:24:56;7.60;;;3.15;;
67675;SDS011;54456;48.436;10.028;2023-12-29T07:26:26;16.65;;;5.97;;
67675;SDS011;54456;48.436;10.028;2023-12-29T07:27:56;14.73;;;6.10;;
67675;SDS011;54456;48.436;10.028;2023-12-29T07:29:28;14.00;;;4.30;;
67675;SDS011;54456;48.436;10.028;2023-12-29T07:30:58;11.25;;;3.92;;
67675;SDS011;54456;48.436;10.028;2023-12-29T07:32:29;16.50;;;5.50;;
67675;SDS011;54456;48.436;10.028;2023-12-29T07:34:00;18.70;;;5.47;;
67675;SDS011;54456;48.436;10.028;2023-12-29T07:35:30;13.40;;;4.28;;
67675;SDS011;54456;48.436;10.028;2023-12-29T07:37:00;15.20;;;5.88;;
67675;SDS011;54456;48.436;10.028;2023-12-29T07:38:31;18.38;;;6.50;;
67675;SDS011;54456;48.436;10.028;2023-12-29T07:40:01;18.42;;;6.10;;
67675;SDS011;54456;48.436;10.028;2023-12-29T07:41:33;14.77;;;5.00;;
67675;SDS011;54456;48.436;10.028;2023-12-29T07:43:07;18.13;;;7.00;;
67675;SDS011;54456;48.436;10.028;2023-12-29T07:44:41;14.82;;;5.82;;
67675;SDS011;54456;48.436;10.028;2023-12-29T07:46:13;15.10;;;5.72;;
67675;SDS011;54456;48.436;10.028;2023-12-29T07:47:53;13.13;;;4.20;;
67675;SDS011;54456;48.436;10.028;2023-12-29T07:49:27;12.32;;;5.25;;
67675;SDS011;54456;48.436;10.028;2023-12-29T07:51:04;15.20;;;5.97;;
67675;SDS011;54456;48.436;10.028;2023-12-29T07:52:35;15.32;;;5.65;;
67675;SDS011;54456;48.436;10.028;2023-12-29T07:54:06;14.15;;;4.88;;
67675;SDS011;54456;48.436;10.028;2023-12-29T07:55:39;13.82;;;5.65;;
67675;SDS011;54456;48.436;10.028;2023-12-29T07:57:10;17.20;;;6.32;;
67675;SDS011;54456;48.436;10.028;2023-12-29T07:58:40;16.10;;;5.63;;
67675;SDS011;54456;48.436;10.028;2023-12-29T08:00:11;18.15;;;5.65;;
67675;SDS011;54456;48.436;10.028;2023-12-29T08:01:45;15.77;;;6.05;;
67675;SDS011;54456;48.436;10.028;2023-12-29T08:03:15;13.80;;;5.40;;
67675;SDS011;54456;48.436;10.028;2023-12-29T08:04:46;17.30;;;5.10;;
67675;SDS011;54456;48.436;10.028;2023-12-29T08:06:18;13.48;;;5.45;;
67675;SDS011;54456;48.436;10.028;2023-12-29T08:07:48;14.80;;;6.30;;
67675;SDS011;54456;48.436;10.028;2023-12-29T08:09:19;16.10;;;5.60;;
67675;SDS011;54456;48.436;10.028;2023-12-29T08:10:50;15.75;;;5.80;;
67675;SDS011;54456;48.436;10.028;2023-12-29T08:12:20;16.45;;;6.35;;
67675;SDS011;54456;48.436;10.028;2023-12-29T08:13:51;12.90;;;4.80;;
67675;SDS011;54456;48.436;10.028;2023-12-29T08:15:21;13.00;;;5.03;;
67675;SDS011;54456;48.436;10.028;2023-12-29T08:16:53;9.38;;;3.90;;
67675;SDS011;54456;48.436;10.028;2023-12-29T08:18:23;17.07;;;5.40;;
67675;SDS011;54456;48.436;10.028;2023-12-29T08:19:53;10.83;;;4.33;;
67675;SDS011;54456;48.436;10.028;2023-12-29T08:21:24;10.35;;;4.32;;
67675;SDS011;54456;48.436;10.028;2023-12-29T08:22:55;9.23;;;3.33;;
67675;SDS011;54456;48.436;10.028;2023-12-29T08:24:26;13.05;;;4.10;;
67675;SDS011;54456;48.436;10.028;2023-12-29T08:25:57;13.07;;;5.30;;
67675;SDS011;54456;48.436;10.028;2023-12-29T08:27:31;8.70;;;3.17;;
67675;SDS011;54456;48.436;10.028;2023-12-29T08:29:01;13.68;;;5.20;;
67675;SDS011;54456;48.436;10.028;2023-12-29T08:30:34;13.68;;;6.57;;
67675;SDS011;54456;48.436;10.028;2023-12-29T08:32:06;12.52;;;4.85;;
67675;SDS011;54456;48.436;10.028;2023-12-29T08:33:37;16.67;;;5.35;;
67675;SDS011;54456;48.436;10.028;2023-12-29T08:35:07;14.57;;;5.57;;
67675;SDS011;54456;48.436;10.028;2023-12-29T08:36:38;15.82;;;5.88;;
67675;SDS011;54456;48.436;10.028;2023-12-29T08:38:08;12.60;;;5.15;;
67675;SDS011;54456;48.436;10.028;2023-12-29T08:39:39;13.55;;;5.68;;
67675;SDS011;54456;48.436;10.028;2023-12-29T08:41:09;15.02;;;5.30;;
67675;SDS011;54456;48.436;10.028;2023-12-29T08:42:39;14.95;;;4.72;;
67675;SDS011;54456;48.436;10.028;2023-12-29T08:44:13;11.00;;;3.80;;
67675;SDS011;54456;48.436;10.028;2023-12-29T08:45:44;14.48;;;5.80;;
67675;SDS011;54456;48.436;10.028;2023-12-29T08:47:20;14.82;;;5.38;;
67675;SDS011;54456;48.436;10.028;2023-12-29T08:48:53;15.93;;;6.22;;
67675;SDS011;54456;48.436;10.028;2023-12-29T08:50:24;13.38;;;4.75;;
67675;SDS011;54456;48.436;10.028;2023-12-29T08:51:54;14.20;;;5.65;;
67675;SDS011;54456;48.436;10.028;2023-12-29T08:53:24;14.53;;;5.53;;
67675;SDS011;54456;48.436;10.028;2023-12-29T08:54:55;15.50;;;5.65;;
67675;SDS011;54456;48.436;10.028;2023-12-29T08:56:25;13.47;;;5.70;;
67675;SDS011;54456;48.436;10.028;2023-12-29T08:57:56;14.85;;;5.85;;
67675;SDS011;54456;48.436;10.028;2023-12-29T08:59:26;16.90;;;6.37;;
67675;SDS011;54456;48.436;10.028;2023-12-29T09:00:56;15.70;;;5.57;;
67675;SDS011;54456;48.436;10.028;2023-12-29T09:02:27;12.52;;;5.03;;
67675;SDS011;54456;48.436;10.028;2023-12-29T09:03:57;11.43;;;3.97;;
67675;SDS011;54456;48.436;10.028;2023-12-29T09:05:27;13.40;;;5.07;;
67675;SDS011;54456;48.436;10.028;2023-12-29T09:06:58;18.53;;;5.10;;
67675;SDS011;54456;48.436;10.028;2023-12-29T09:08:28;15.03;;;5.70;;
67675;SDS011;54456;48.436;10.028;2023-12-29T09:09:58;17.13;;;5.53;;
67675;SDS011;54456;48.436;10.028;2023-12-29T09:11:31;13.52;;;4.70;;
67675;SDS011;54456;48.436;10.028;2023-12-29T09:13:02;16.77;;;5.50;;
67675;SDS011;54456;48.436;10.028;2023-12-29T09:14:32;13.98;;;6.03;;
67675;SDS011;54456;48.436;10.028;2023-12-29T09:16:04;15.48;;;6.22;;
67675;SDS011;54456;48.436;10.028;2023-12-29T09:17:35;13.82;;;5.68;;
67675;SDS011;54456;48.436;10.028;2023-12-29T09:19:05;14.57;;;5.77;;
67675;SDS011;54456;48.436;10.028;2023-12-29T09:20:35;12.57;;;4.27;;
67675;SDS011;54456;48.436;10.028;2023-12-29T09:22:06;12.43;;;4.50;;
67675;SDS011;54456;48.436;10.028;2023-12-29T09:23:36;12.90;;;4.78;;
67675;SDS011;54456;48.436;10.028;2023-12-29T09:25:08;12.10;;;4.78;;
67675;SDS011;54456;48.436;10.028;2023-12-29T09:26:38;13.85;;;4.60;;
67675;SDS011;54456;48.436;10.028;2023-12-29T09:28:09;13.07;;;5.20;;
67675;SDS011;54456;48.436;10.028;2023-12-29T09:29:39;11.35;;;4.60;;
67675;SDS011;54456;48.436;10.028;2023-12-29T09:31:10;10.55;;;4.43;;
67675;SDS011;54456;48.436;10.028;2023-12-29T09:32:41;11.02;;;4.60;;
67675;SDS011;54456;48.436;10.028;2023-12-29T09:34:11;10.02;;;3.95;;
67675;SDS011;54456;48.436;10.028;2023-12-29T09:35:42;13.77;;;5.37;;
67675;SDS011;54456;48.436;10.028;2023-12-29T09:37:12;11.60;;;4.83;;
67675;SDS011;54456;48.436;10.028;2023-12-29T09:38:42;12.48;;;4.65;;
67675;SDS011;54456;48.436;10.028;2023-12-29T09:40:16;12.80;;;6.00;;
67675;SDS011;54456;48.436;10.028;2023-12-29T09:41:46;10.73;;;3.85;;
67675;SDS011;54456;48.436;10.028;2023-12-29T09:43:21;10.52;;;3.83;;
67675;SDS011;54456;48.436;10.028;2023-12-29T09:44:51;9.63;;;3.83;;
67675;SDS011;54456;48.436;10.028;2023-12-29T09:46:22;12.35;;;4.68;;
67675;SDS011;54456;48.436;10.028;2023-12-29T09:47:53;10.93;;;4.20;;
67675;SDS011;54456;48.436;10.028;2023-12-29T09:49:24;8.55;;;3.30;;
67675;SDS011;54456;48.436;10.028;2023-12-29T09:50:58;8.43;;;3.22;;
67675;SDS011;54456;48.436;10.028;2023-12-29T09:52:28;11.70;;;4.80;;
67675;SDS011;54456;48.436;10.028;2023-12-29T09:53:59;11.98;;;4.53;;
67675;SDS011;54456;48.436;10.028;2023-12-29T09:55:29;11.95;;;4.65;;
67675;SDS011;54456;48.436;10.028;2023-12-29T09:57:00;11.85;;;4.93;;
67675;SDS011;54456;48.436;10.028;2023-12-29T09:58:32;9.73;;;3.67;;
67675;SDS011;54456;48.436;10.028;2023-12-29T10:00:03;11.88;;;4.75;;
67675;SDS011;54456;48.436;10.028;2023-12-29T10:01:33;10.52;;;3.70;;
67675;SDS011;54456;48.436;10.028;2023-12-29T10:03:05;12.20;;;4.95;;
67675;SDS011;54456;48.436;10.028;2023-12-29T10:04:35;14.95;;;4.88;;
67675;SDS011;54456;48.436;10.028;2023-12-29T10:06:06;11.75;;;3.90;;
67675;SDS011;54456;48.436;10.028;2023-12-29T10:07:40;11.73;;;4.45;;
67675;SDS011;54456;48.436;10.028;2023-12-29T10:09:14;11.65;;;5.63;;
67675;SDS011;54456;48.436;10.028;2023-12-29T10:10:46;12.35;;;4.85;;
67675;SDS011;54456;48.436;10.028;2023-12-29T10:12:19;12.10;;;5.60;;
67675;SDS011;54456;48.436;10.028;2023-12-29T10:13:51;12.00;;;3.88;;
67675;SDS011;54456;48.436;10.028;2023-12-29T10:24:38;8.95;;;3.75;;
67675;SDS011;54456;48.436;10.028;2023-12-29T10:26:10;9.95;;;4.15;;
67675;SDS011;54456;48.436;10.028;2023-12-29T10:27:41;11.25;;;4.22;;
67675;SDS011;54456;48.436;10.028;2023-12-29T10:29:11;8.97;;;3.57;;
67675;SDS011;54456;48.436;10.028;2023-12-29T10:30:42;11.70;;;4.53;;
67675;SDS011;54456;48.436;10.028;2023-12-29T10:32:13;10.03;;;4.37;;
67675;SDS011;54456;48.436;10.028;2023-12-29T10:33:43;8.50;;;3.67;;
67675;SDS011;54456;48.436;10.028;2023-12-29T10:35:16;11.32;;;4.72;;
67675;SDS011;54456;48.436;10.028;2023-12-29T10:36:47;11.43;;;4.63;;
67675;SDS011;54456;48.436;10.028;2023-12-29T10:38:19;13.18;;;4.72;;
67675;SDS011;54456;48.436;10.028;2023-12-29T10:39:55;8.35;;;3.00;;
67675;SDS011;54456;48.436;10.028;2023-12-29T10:41:26;9.13;;;3.92;;
67675;SDS011;54456;48.436;10.028;2023-12-29T10:42:57;12.40;;;4.95;;
67675;SDS011;54456;48.436;10.028;2023-12-29T10:44:35;10.70;;;4.43;;
67675;SDS011;54456;48.436;10.028;2023-12-29T10:46:07;12.75;;;4.88;;
67675;SDS011;54456;48.436;10.028;2023-12-29T10:47:43;9.55;;;2.83;;
67675;SDS011;54456;48.436;10.028;2023-12-29T10:49:13;11.05;;;4.70;;
67675;SDS011;54456;48.436;10.028;2023-12-29T10:50:44;10.40;;;4.32;;
67675;SDS011;54456;48.436;10.028;2023-12-29T10:52:18;9.85;;;4.07;;
67675;SDS011;54456;48.436;10.028;2023-12-29T10:53:54;9.40;;;3.60;;
67675;SDS011;54456;48.436;10.028;2023-12-29T10:55:25;10.13;;;4.13;;
67675;SDS011;54456;48.436;10.028;2023-12-29T10:57:02;10.52;;;4.72;;
67675;SDS011;54456;48.436;10.028;2023-12-29T10:58:33;9.98;;;3.90;;
67675;SDS011;54456;48.436;10.028;2023-12-29T11:01:37;8.30;;;3.20;;
67675;SDS011;54456;48.436;10.028;2023-12-29T11:03:08;10.57;;;4.20;;
67675;SDS011;54456;48.436;10.028;2023-12-29T11:04:47;10.30;;;4.05;;
67675;SDS011;54456;48.436;10.028;2023-12-29T11:06:18;10.30;;;3.50;;
67675;SDS011;54456;48.436;10.028;2023-12-29T11:07:48;11.40;;;4.40;;
67675;SDS011;54456;48.436;10.028;2023-12-29T11:09:30;8.38;;;3.10;;
67675;SDS011;54456;48.436;10.028;2023-12-29T11:11:01;9.18;;;3.33;;
67675;SDS011;54456;48.436;10.028;2023-12-29T11:12:33;9.32;;;3.28;;
67675;SDS011;54456;48.436;10.028;2023-12-29T11:14:04;10.18;;;4.13;;
67675;SDS011;54456;48.436;10.028;2023-12-29T11:15:35;10.00;;;3.70;;
67675;SDS011;54456;48.436;10.028;2023-12-29T11:17:05;10.07;;;4.13;;
67675;SDS011;54456;48.436;10.028;2023-12-29T11:18:37;11.02;;;4.50;;
67675;SDS011;54456;48.436;10.028;2023-12-29T11:20:08;10.07;;;4.10;;
67675;SDS011;54456;48.436;10.028;2023-12-29T11:21:40;7.40;;;3.15;;
67675;SDS011;54456;48.436;10.028;2023-12-29T11:23:11;10.57;;;4.25;;
67675;SDS011;54456;48.436;10.028;2023-12-29T11:24:45;9.57;;;4.05;;
67675;SDS011;54456;48.436;10.028;2023-12-29T11:26:17;12.15;;;3.97;;
67675;SDS011;54456;48.436;10.028;2023-12-29T11:27:48;7.63;;;3.10;;
67675;SDS011;54456;48.436;10.028;2023-12-29T11:29:19;8.93;;;4.53;;
67675;SDS011;54456;48.436;10.028;2023-12-29T11:30:49;10.00;;;4.20;;
67675;SDS011;54456;48.436;10.028;2023-12-29T11:32:23;7.60;;;3.13;;
67675;SDS011;54456;48.436;10.028;2023-12-29T11:34:18;9.15;;;3.75;;
67675;SDS011;54456;48.436;10.028;2023-12-29T11:39:51;7.93;;;3.80;;
67675;SDS011;54456;48.436;10.028;2023-12-29T11:41:37;9.13;;;3.63;;
67675;SDS011;54456;48.436;10.028;2023-12-29T11:43:12;10.13;;;4.50;;
67675;SDS011;54456;48.436;10.028;2023-12-29T11:44:46;7.47;;;2.95;;
67675;SDS011;54456;48.436;10.028;2023-12-29T11:48:05;7.72;;;3.10;;
67675;SDS011;54456;48.436;10.028;2023-12-29T11:53:00;5.90;;;2.30;;
67675;SDS011;54456;48.436;10.028;2023-12-29T11:54:30;9.32;;;4.07;;
67675;SDS011;54456;48.436;10.028;2023-12-29T11:56:02;8.73;;;3.47;;
67675;SDS011;54456;48.436;10.028;2023-12-29T11:57:44;8.57;;;3.58;;
67675;SDS011;54456;48.436;10.028;2023-12-29T12:00:49;9.27;;;3.58;;
67675;SDS011;54456;48.436;10.028;2023-12-29T12:02:27;9.18;;;3.53;;
67675;SDS011;54456;48.436;10.028;2023-12-29T12:03:58;8.90;;;3.10;;
67675;SDS011;54456;48.436;10.028;2023-12-29T12:05:47;10.43;;;3.50;;
67675;SDS011;54456;48.436;10.028;2023-12-29T12:10:55;8.27;;;3.28;;
67675;SDS011;54456;48.436;10.028;2023-12-29T12:12:41;9.35;;;3.90;;
67675;SDS011;54456;48.436;10.028;2023-12-29T12:14:40;7.72;;;3.20;;
67675;SDS011;54456;48.436;10.028;2023-12-29T12:16:46;8.48;;;2.95;;
67675;SDS011;54456;48.436;10.028;2023-12-29T12:18:20;8.07;;;2.92;;
67675;SDS011;54456;48.436;10.028;2023-12-29T12:19:51;8.90;;;3.85;;
67675;SDS011;54456;48.436;10.028;2023-12-29T12:21:21;9.75;;;4.45;;
67675;SDS011;54456;48.436;10.028;2023-12-29T12:23:02;9.10;;;3.33;;
67675;SDS011;54456;48.436;10.028;2023-12-29T12:24:45;8.20;;;2.65;;
67675;SDS011;54456;48.436;10.028;2023-12-29T12:26:17;7.95;;;2.92;;
67675;SDS011;54456;48.436;10.028;2023-12-29T12:27:48;9.65;;;4.55;;
67675;SDS011;54456;48.436;10.028;2023-12-29T12:29:18;8.98;;;3.08;;
67675;SDS011;54456;48.436;10.028;2023-12-29T12:30:49;8.45;;;3.63;;
67675;SDS011;54456;48.436;10.028;2023-12-29T12:32:19;8.00;;;3.07;;
67675;SDS011;54456;48.436;10.028;2023-12-29T12:33:56;8.77;;;3.27;;
67675;SDS011;54456;48.436;10.028;2023-12-29T12:35:26;9.63;;;3.75;;
67675;SDS011;54456;48.436;10.028;2023-12-29T12:36:57;11.07;;;4.28;;
67675;SDS011;54456;48.436;10.028;2023-12-29T12:38:29;8.90;;;3.97;;
67675;SDS011;54456;48.436;10.028;2023-12-29T12:40:02;9.40;;;3.58;;
67675;SDS011;54456;48.436;10.028;2023-12-29T12:41:33;9.25;;;3.83;;
67675;SDS011;54456;48.436;10.028;2023-12-29T12:43:04;8.60;;;3.70;;
67675;SDS011;54456;48.436;10.028;2023-12-29T12:44:34;10.43;;;3.60;;
67675;SDS011;54456;48.436;10.028;2023-12-29T12:46:11;7.78;;;3.03;;
67675;SDS011;54456;48.436;10.028;2023-12-29T12:47:51;7.75;;;3.13;;
67675;SDS011;54456;48.436;10.028;2023-12-29T12:49:23;9.32;;;2.97;;
67675;SDS011;54456;48.436;10.028;2023-12-29T12:50:53;9.63;;;3.10;;
67675;SDS011;54456;48.436;10.028;2023-12-29T12:52:30;8.90;;;3.42;;
67675;SDS011;54456;48.436;10.028;2023-12-29T12:54:01;8.80;;;3.30;;
67675;SDS011;54456;48.436;10.028;2023-12-29T12:55:34;7.10;;;2.72;;
67675;SDS011;54456;48.436;10.028;2023-12-29T12:57:04;7.68;;;2.67;;
67675;SDS011;54456;48.436;10.028;2023-12-29T12:58:35;10.20;;;3.55;;
67675;SDS011;54456;48.436;10.028;2023-12-29T13:00:05;8.43;;;3.28;;
67675;SDS011;54456;48.436;10.028;2023-12-29T13:01:38;8.82;;;3.30;;
67675;SDS011;54456;48.436;10.028;2023-12-29T13:03:08;9.48;;;3.42;;
67675;SDS011;54456;48.436;10.028;2023-12-29T13:04:39;10.15;;;3.75;;
67675;SDS011;54456;48.436;10.028;2023-12-29T13:06:11;8.73;;;3.38;;
67675;SDS011;54456;48.436;10.028;2023-12-29T13:07:41;8.63;;;3.28;;
67675;SDS011;54456;48.436;10.028;2023-12-29T13:09:12;9.90;;;3.53;;
67675;SDS011;54456;48.436;10.028;2023-12-29T13:10:43;4.85;;;1.88;;
67675;SDS011;54456;48.436;10.028;2023-12-29T13:12:14;8.25;;;3.47;;
67675;SDS011;54456;48.436;10.028;2023-12-29T13:13:45;8.63;;;3.17;;